sensor_id;sensor_type;location;lat;lon;timestamp;temperature;humidity
13694;DHT22;6919;52.344;14.518;2024-01-15T00:01:42;1.20;99.90
13694;DHT22;6919;52.344;14.518;2024-01-15T00:04:11;1.20;99.90
13694;DHT22;6919;52.344;14.518;2024-01-15T00:06:41;1.20;99.90
13694;DHT22;6919;52.344;14.518;2024-01-15T00:09:10;1.20;99.90
13694;DHT22;6919;52.344;14.518;2024-01-15T00:11:38;1.20;99.90
13694;DHT22;6919;52.344;14.518;2024-01-15T00:14:06;1.20;99.90
13694;DHT22;6919;52.344;14.518;2024-01-15T00:16:35;1.20;99.90
13694;DHT22;6919;52.344;14.518;2024-01-15T00:19:03;1.20;99.90
13694;DHT22;6919;52.344;14.518;2024-01-15T00:21:32;1.20;99.90
13694;DHT22;6919;52.344;14.518;2024-01-15T00:24:02;1.20;99.90
13694;DHT22;6919;52.344;14.518;2024-01-15T00:26:30;1.20;99.90
13694;DHT22;6919;52.344;14.518;2024-01-15T00:28:58;1.20;99.90
13694;DHT22;6919;52.344;14.518;2024-01-15T00:31:27;1.20;99.90
13694;DHT22;6919;52.344;14.518;2024-01-15T00:33:56;1.20;99.90
13694;DHT22;6919;52.344;14.518;2024-01-15T00:36:26;1.20;99.90
13694;DHT22;6919;52.344;14.518;2024-01-15T00:38:54;1.20;99.90
13694;DHT22;6919;52.344;14.518;2024-01-15T00:41:24;1.20;99.90
13694;DHT22;6919;52.344;14.518;2024-01-15T00:43:54;1.30;99.90
13694;DHT22;6919;52.344;14.518;2024-01-15T00:46:22;1.20;99.90
13694;DHT22;6919;52.344;14.518;2024-01-15T00:48:51;1.30;99.90
13694;DHT22;6919;52.344;14.518;2024-01-15T00:51:19;1.20;99.90
13694;DHT22;6919;52.344;14.518;2024-01-15T00:53:48;1.20;99.90
13694;DHT22;6919;52.344;14.518;2024-01-15T00:56:16;1.20;99.90
13694;DHT22;6919;52.344;14.518;2024-01-15T00:58:46;1.20;99.90
13694;DHT22;6919;52.344;14.518;2024-01-15T01:01:14;1.20;99.90
13694;DHT22;6919;52.344;14.518;2024-01-15T01:03:42;1.20;99.90
13694;DHT22;6919;52.344;14.518;2024-01-15T01:06:11;1.20;99.90
13694;DHT22;6919;52.344;14.518;2024-01-15T01:08:39;1.20;99.90
13694;DHT22;6919;52.344;14.518;2024-01-15T01:11:07;1.20;99.90
13694;DHT22;6919;52.344;14.518;2024-01-15T01:13:40;1.20;99.90
13694;DHT22;6919;52.344;14.518;2024-01-15T01:16:09;1.10;99.90
13694;DHT22;6919;52.344;14.518;2024-01-15T01:18:38;1.00;99.90
13694;DHT22;6919;52.344;14.518;2024-01-15T01:21:07;1.00;99.90
13694;DHT22;6919;52.344;14.518;2024-01-15T01:23:35;0.90;99.90
13694;DHT22;6919;52.344;14.518;2024-01-15T01:26:03;1.00;99.90
13694;DHT22;6919;52.344;14.518;2024-01-15T01:28:31;1.00;99.90
13694;DHT22;6919;52.344;14.518;2024-01-15T01:31:00;1.00;99.90
13694;DHT22;6919;52.344;14.518;2024-01-15T01:33:30;0.90;99.90
13694;DHT22;6919;52.344;14.518;2024-01-15T01:35:59;1.00;99.90
13694;DHT22;6919;52.344;14.518;2024-01-15T01:38:28;1.00;99.90
13694;DHT22;6919;52.344;14.518;2024-01-15T01:40:57;1.00;99.90
13694;DHT22;6919;52.344;14.518;2024-01-15T01:43:25;1.00;99.90
13694;DHT22;6919;52.344;14.518;2024-01-15T01:45:56;1.00;99.90
13694;DHT22;6919;52.344;14.518;2024-01-15T01:48:26;1.00;99.90
13694;DHT22;6919;52.344;14.518;2024-01-15T01:50:58;1.00;99.90
13694;DHT22;6919;52.344;14.518;2024-01-15T01:53:28;0.90;99.90
13694;DHT22;6919;52.344;14.518;2024-01-15T01:55:59;1.00;99.90
13694;DHT22;6919;52.344;14.518;2024-01-15T01:58:27;0.80;99.90
13694;DHT22;6919;52.344;14.518;2024-01-15T02:00:57;0.90;99.90
13694;DHT22;6919;52.344;14.518;2024-01-15T02:03:27;0.80;99.90
13694;DHT22;6919;52.344;14.518;2024-01-15T02:05:57;0.80;99.90
13694;DHT22;6919;52.344;14.518;2024-01-15T02:08:27;0.80;99.90
13694;DHT22;6919;52.344;14.518;2024-01-15T02:10:57;0.80;99.90
13694;DHT22;6919;52.344;14.518;2024-01-15T02:13:25;0.70;99.90
13694;DHT22;6919;52.344;14.518;2024-01-15T02:15:53;0.70;99.90
13694;DHT22;6919;52.344;14.518;2024-01-15T02:18:22;0.60;99.90
13694;DHT22;6919;52.344;14.518;2024-01-15T02:20:50;0.70;99.90
13694;DHT22;6919;52.344;14.518;2024-01-15T02:23:20;0.60;99.90
13694;DHT22;6919;52.344;14.518;2024-01-15T02:25:49;0.70;99.90
13694;DHT22;6919;52.344;14.518;2024-01-15T02:28:17;0.70;99.90
13694;DHT22;6919;52.344;14.518;2024-01-15T02:30:46;0.70;99.90
13694;DHT22;6919;52.344;14.518;2024-01-15T02:33:15;0.60;99.90
13694;DHT22;6919;52.344;14.518;2024-01-15T02:35:43;0.60;99.90
13694;DHT22;6919;52.344;14.518;2024-01-15T02:38:13;0.60;99.90
13694;DHT22;6919;52.344;14.518;2024-01-15T02:40:43;0.60;99.90
13694;DHT22;6919;52.344;14.518;2024-01-15T02:43:12;0.70;99.90
13694;DHT22;6919;52.344;14.518;2024-01-15T02:45:41;0.60;99.90
13694;DHT22;6919;52.344;14.518;2024-01-15T02:48:09;0.60;99.90
13694;DHT22;6919;52.344;14.518;2024-01-15T02:50:38;0.60;99.90
13694;DHT22;6919;52.344;14.518;2024-01-15T02:53:06;0.60;99.90
13694;DHT22;6919;52.344;14.518;2024-01-15T02:55:34;0.60;99.90
13694;DHT22;6919;52.344;14.518;2024-01-15T02:58:04;0.60;99.90
13694;DHT22;6919;52.344;14.518;2024-01-15T03:00:33;0.60;99.90
13694;DHT22;6919;52.344;14.518;2024-01-15T03:03:01;0.50;99.90
13694;DHT22;6919;52.344;14.518;2024-01-15T03:05:29;0.60;99.90
13694;DHT22;6919;52.344;14.518;2024-01-15T03:07:58;0.60;99.90
13694;DHT22;6919;52.344;14.518;2024-01-15T03:10:26;0.60;99.90
13694;DHT22;6919;52.344;14.518;2024-01-15T03:12:55;0.60;99.90
13694;DHT22;6919;52.344;14.518;2024-01-15T03:15:25;0.60;99.90
13694;DHT22;6919;52.344;14.518;2024-01-15T03:17:53;0.60;99.90
13694;DHT22;6919;52.344;14.518;2024-01-15T03:20:22;0.60;99.90
13694;DHT22;6919;52.344;14.518;2024-01-15T03:22:50;0.60;99.90
13694;DHT22;6919;52.344;14.518;2024-01-15T03:25:18;0.60;99.90
13694;DHT22;6919;52.344;14.518;2024-01-15T03:27:46;0.60;99.90
13694;DHT22;6919;52.344;14.518;2024-01-15T03:30:15;0.50;99.90
13694;DHT22;6919;52.344;14.518;2024-01-15T03:32:45;0.50;99.90
13694;DHT22;6919;52.344;14.518;2024-01-15T03:35:14;0.50;99.90
13694;DHT22;6919;52.344;14.518;2024-01-15T03:37:42;0.60;99.90
13694;DHT22;6919;52.344;14.518;2024-01-15T03:40:11;0.50;99.90
13694;DHT22;6919;52.344;14.518;2024-01-15T03:42:40;0.50;99.90
13694;DHT22;6919;52.344;14.518;2024-01-15T03:45:08;0.50;99.90
13694;DHT22;6919;52.344;14.518;2024-01-15T03:47:37;0.50;99.90
13694;DHT22;6919;52.344;14.518;2024-01-15T03:50:07;0.50;99.90
13694;DHT22;6919;52.344;14.518;2024-01-15T03:52:36;0.50;99.90
13694;DHT22;6919;52.344;14.518;2024-01-15T03:55:05;0.50;99.90
13694;DHT22;6919;52.344;14.518;2024-01-15T03:57:34;0.50;99.90
13694;DHT22;6919;52.344;14.518;2024-01-15T04:00:03;-0.20;99.90
13694;DHT22;6919;52.344;14.518;2024-01-15T04:02:32;0.40;99.90
13694;DHT22;6919;52.344;14.518;2024-01-15T04:05:00;0.40;99.90
13694;DHT22;6919;52.344;14.518;2024-01-15T04:07:30;0.50;99.90
13694;DHT22;6919;52.344;14.518;2024-01-15T04:09:59;0.50;99.90
13694;DHT22;6919;52.344;14.518;2024-01-15T04:12:27;0.60;99.90
13694;DHT22;6919;52.344;14.518;2024-01-15T04:14:56;0.50;99.90
13694;DHT22;6919;52.344;14.518;2024-01-15T04:17:24;0.60;99.90
13694;DHT22;6919;52.344;14.518;2024-01-15T04:19:52;0.60;99.90
13694;DHT22;6919;52.344;14.518;2024-01-15T04:22:21;0.60;99.90
13694;DHT22;6919;52.344;14.518;2024-01-15T04:24:50;0.60;99.90
13694;DHT22;6919;52.344;14.518;2024-01-15T04:27:19;0.60;99.90
13694;DHT22;6919;52.344;14.518;2024-01-15T04:29:47;0.60;99.90
13694;DHT22;6919;52.344;14.518;2024-01-15T04:32:15;0.60;99.90
13694;DHT22;6919;52.344;14.518;2024-01-15T04:34:44;0.70;99.90
13694;DHT22;6919;52.344;14.518;2024-01-15T04:37:13;0.70;99.90
13694;DHT22;6919;52.344;14.518;2024-01-15T04:39:42;0.70;99.90
13694;DHT22;6919;52.344;14.518;2024-01-15T04:42:13;0.70;99.90
13694;DHT22;6919;52.344;14.518;2024-01-15T04:44:41;0.80;99.90
13694;DHT22;6919;52.344;14.518;2024-01-15T04:47:09;0.80;99.90
13694;DHT22;6919;52.344;14.518;2024-01-15T04:49:38;0.90;99.90
13694;DHT22;6919;52.344;14.518;2024-01-15T04:52:06;1.00;99.90
13694;DHT22;6919;52.344;14.518;2024-01-15T04:54:37;1.00;99.90
13694;DHT22;6919;52.344;14.518;2024-01-15T04:57:05;1.00;99.90
13694;DHT22;6919;52.344;14.518;2024-01-15T04:59:35;1.00;99.90
13694;DHT22;6919;52.344;14.518;2024-01-15T05:02:03;1.00;99.90
13694;DHT22;6919;52.344;14.518;2024-01-15T05:04:31;1.00;99.90
13694;DHT22;6919;52.344;14.518;2024-01-15T05:07:01;1.00;99.90
13694;DHT22;6919;52.344;14.518;2024-01-15T05:09:29;0.90;99.90
13694;DHT22;6919;52.344;14.518;2024-01-15T05:12:00;0.90;99.90
13694;DHT22;6919;52.344;14.518;2024-01-15T05:14:28;0.90;99.90
13694;DHT22;6919;52.344;14.518;2024-01-15T05:16:58;0.90;99.90
13694;DHT22;6919;52.344;14.518;2024-01-15T05:19:26;0.90;99.90
13694;DHT22;6919;52.344;14.518;2024-01-15T05:21:55;-1.50;99.90
13694;DHT22;6919;52.344;14.518;2024-01-15T05:24:23;1.00;99.90
13694;DHT22;6919;52.344;14.518;2024-01-15T05:26:53;1.00;99.90
13694;DHT22;6919;52.344;14.518;2024-01-15T05:29:21;1.00;99.90
13694;DHT22;6919;52.344;14.518;2024-01-15T05:31:50;1.00;99.90
13694;DHT22;6919;52.344;14.518;2024-01-15T05:34:19;1.10;99.90
13694;DHT22;6919;52.344;14.518;2024-01-15T05:36:48;1.20;99.90
13694;DHT22;6919;52.344;14.518;2024-01-15T05:39:16;1.20;99.90
13694;DHT22;6919;52.344;14.518;2024-01-15T05:41:47;1.10;99.90
13694;DHT22;6919;52.344;14.518;2024-01-15T05:44:16;1.10;99.90
13694;DHT22;6919;52.344;14.518;2024-01-15T05:46:44;1.10;99.90
13694;DHT22;6919;52.344;14.518;2024-01-15T05:49:12;1.10;99.90
13694;DHT22;6919;52.344;14.518;2024-01-15T05:51:42;1.10;99.90
13694;DHT22;6919;52.344;14.518;2024-01-15T05:54:10;1.20;99.90
13694;DHT22;6919;52.344;14.518;2024-01-15T05:56:39;1.10;99.90
13694;DHT22;6919;52.344;14.518;2024-01-15T05:59:07;1.20;99.90
13694;DHT22;6919;52.344;14.518;2024-01-15T06:01:39;1.20;99.90
13694;DHT22;6919;52.344;14.518;2024-01-15T06:04:08;1.20;99.90
13694;DHT22;6919;52.344;14.518;2024-01-15T06:06:37;1.20;99.90
13694;DHT22;6919;52.344;14.518;2024-01-15T06:09:06;1.10;99.90
13694;DHT22;6919;52.344;14.518;2024-01-15T06:11:35;1.20;99.90
13694;DHT22;6919;52.344;14.518;2024-01-15T06:14:03;1.10;99.90
13694;DHT22;6919;52.344;14.518;2024-01-15T06:16:32;1.10;99.90
13694;DHT22;6919;52.344;14.518;2024-01-15T06:19:00;1.10;99.90
13694;DHT22;6919;52.344;14.518;2024-01-15T06:21:29;1.10;99.90
13694;DHT22;6919;52.344;14.518;2024-01-15T06:23:57;1.10;99.90
13694;DHT22;6919;52.344;14.518;2024-01-15T06:26:27;1.00;99.90
13694;DHT22;6919;52.344;14.518;2024-01-15T06:28:55;1.10;99.90
13694;DHT22;6919;52.344;14.518;2024-01-15T06:31:23;1.00;99.90
13694;DHT22;6919;52.344;14.518;2024-01-15T06:33:52;1.10;99.90
13694;DHT22;6919;52.344;14.518;2024-01-15T06:36:20;1.10;99.90
13694;DHT22;6919;52.344;14.518;2024-01-15T06:38:49;1.10;99.90
13694;DHT22;6919;52.344;14.518;2024-01-15T06:41:17;1.00;99.90
13694;DHT22;6919;52.344;14.518;2024-01-15T06:43:47;1.10;99.90
13694;DHT22;6919;52.344;14.518;2024-01-15T06:46:20;1.20;99.90
13694;DHT22;6919;52.344;14.518;2024-01-15T06:48:48;1.10;99.90
13694;DHT22;6919;52.344;14.518;2024-01-15T06:51:17;1.20;99.90
13694;DHT22;6919;52.344;14.518;2024-01-15T06:53:45;1.10;99.90
13694;DHT22;6919;52.344;14.518;2024-01-15T06:56:13;1.00;99.90
13694;DHT22;6919;52.344;14.518;2024-01-15T06:58:42;1.00;99.90
13694;DHT22;6919;52.344;14.518;2024-01-15T07:01:11;0.90;99.90
13694;DHT22;6919;52.344;14.518;2024-01-15T07:03:40;0.90;99.90
13694;DHT22;6919;52.344;14.518;2024-01-15T07:06:08;0.90;99.90
13694;DHT22;6919;52.344;14.518;2024-01-15T07:08:36;0.90;99.90
13694;DHT22;6919;52.344;14.518;2024-01-15T07:11:05;0.90;99.90
13694;DHT22;6919;52.344;14.518;2024-01-15T07:13:36;0.90;99.90
13694;DHT22;6919;52.344;14.518;2024-01-15T07:16:05;0.90;99.90
13694;DHT22;6919;52.344;14.518;2024-01-15T07:18:35;1.20;99.90
13694;DHT22;6919;52.344;14.518;2024-01-15T07:21:04;0.90;99.90
13694;DHT22;6919;52.344;14.518;2024-01-15T07:23:32;1.00;99.90
13694;DHT22;6919;52.344;14.518;2024-01-15T07:26:00;1.00;99.90
13694;DHT22;6919;52.344;14.518;2024-01-15T07:28:29;1.00;99.90
13694;DHT22;6919;52.344;14.518;2024-01-15T07:30:57;0.90;99.90
13694;DHT22;6919;52.344;14.518;2024-01-15T07:33:26;0.90;99.90
13694;DHT22;6919;52.344;14.518;2024-01-15T07:35:56;0.90;99.90
13694;DHT22;6919;52.344;14.518;2024-01-15T07:38:29;0.90;99.90
13694;DHT22;6919;52.344;14.518;2024-01-15T07:40:57;0.80;99.90
13694;DHT22;6919;52.344;14.518;2024-01-15T07:43:25;0.90;99.90
13694;DHT22;6919;52.344;14.518;2024-01-15T07:45:54;0.90;99.90
13694;DHT22;6919;52.344;14.518;2024-01-15T07:48:23;1.00;99.90
13694;DHT22;6919;52.344;14.518;2024-01-15T07:50:51;1.00;99.90
13694;DHT22;6919;52.344;14.518;2024-01-15T07:53:21;1.00;99.90
13694;DHT22;6919;52.344;14.518;2024-01-15T07:55:49;1.00;99.90
13694;DHT22;6919;52.344;14.518;2024-01-15T07:58:17;1.00;99.90
13694;DHT22;6919;52.344;14.518;2024-01-15T08:00:45;1.00;99.90
13694;DHT22;6919;52.344;14.518;2024-01-15T08:03:14;1.00;99.90
13694;DHT22;6919;52.344;14.518;2024-01-15T08:05:42;1.00;99.90
13694;DHT22;6919;52.344;14.518;2024-01-15T08:08:10;0.90;99.90
13694;DHT22;6919;52.344;14.518;2024-01-15T08:10:40;0.90;99.90
13694;DHT22;6919;52.344;14.518;2024-01-15T08:13:08;0.90;99.90
13694;DHT22;6919;52.344;14.518;2024-01-15T08:15:36;0.80;99.90
13694;DHT22;6919;52.344;14.518;2024-01-15T08:18:05;0.80;99.90
13694;DHT22;6919;52.344;14.518;2024-01-15T08:20:33;0.80;99.90
13694;DHT22;6919;52.344;14.518;2024-01-15T08:23:02;0.80;99.90
13694;DHT22;6919;52.344;14.518;2024-01-15T08:25:31;0.80;99.90
13694;DHT22;6919;52.344;14.518;2024-01-15T08:28:00;0.80;99.90
13694;DHT22;6919;52.344;14.518;2024-01-15T08:30:29;0.70;99.90
13694;DHT22;6919;52.344;14.518;2024-01-15T08:32:57;0.70;99.90
13694;DHT22;6919;52.344;14.518;2024-01-15T08:35:34;0.80;99.90
13694;DHT22;6919;52.344;14.518;2024-01-15T08:38:02;0.80;99.90
13694;DHT22;6919;52.344;14.518;2024-01-15T08:40:31;0.80;99.90
13694;DHT22;6919;52.344;14.518;2024-01-15T08:43:01;0.80;99.90
13694;DHT22;6919;52.344;14.518;2024-01-15T08:45:29;0.90;99.90
13694;DHT22;6919;52.344;14.518;2024-01-15T08:47:58;1.00;99.90
13694;DHT22;6919;52.344;14.518;2024-01-15T08:50:28;1.00;99.90
13694;DHT22;6919;52.344;14.518;2024-01-15T08:52:58;1.10;99.90
13694;DHT22;6919;52.344;14.518;2024-01-15T08:55:27;1.10;99.90
13694;DHT22;6919;52.344;14.518;2024-01-15T08:57:55;1.10;99.90
13694;DHT22;6919;52.344;14.518;2024-01-15T09:00:25;1.10;99.90
13694;DHT22;6919;52.344;14.518;2024-01-15T09:02:53;1.20;99.90
13694;DHT22;6919;52.344;14.518;2024-01-15T09:05:22;1.10;99.90
13694;DHT22;6919;52.344;14.518;2024-01-15T09:07:50;1.20;99.90
13694;DHT22;6919;52.344;14.518;2024-01-15T09:10:19;1.20;99.90
13694;DHT22;6919;52.344;14.518;2024-01-15T09:12:47;1.30;99.90
13694;DHT22;6919;52.344;14.518;2024-01-15T09:15:17;1.40;99.90
13694;DHT22;6919;52.344;14.518;2024-01-15T09:17:47;1.40;99.90
13694;DHT22;6919;52.344;14.518;2024-01-15T09:20:15;1.50;99.90
13694;DHT22;6919;52.344;14.518;2024-01-15T09:22:44;1.50;99.90
13694;DHT22;6919;52.344;14.518;2024-01-15T09:25:12;1.60;99.90
13694;DHT22;6919;52.344;14.518;2024-01-15T09:27:40;1.70;99.90
13694;DHT22;6919;52.344;14.518;2024-01-15T09:30:09;1.70;99.90
13694;DHT22;6919;52.344;14.518;2024-01-15T09:32:38;1.70;99.90
13694;DHT22;6919;52.344;14.518;2024-01-15T09:35:09;1.80;99.90
13694;DHT22;6919;52.344;14.518;2024-01-15T09:37:38;1.80;99.90
13694;DHT22;6919;52.344;14.518;2024-01-15T09:40:14;1.80;99.90
13694;DHT22;6919;52.344;14.518;2024-01-15T09:42:44;1.80;99.90
13694;DHT22;6919;52.344;14.518;2024-01-15T09:45:13;1.80;99.90
13694;DHT22;6919;52.344;14.518;2024-01-15T09:47:42;1.80;99.90
13694;DHT22;6919;52.344;14.518;2024-01-15T09:50:14;1.80;99.90
13694;DHT22;6919;52.344;14.518;2024-01-15T09:52:44;1.80;99.90
13694;DHT22;6919;52.344;14.518;2024-01-15T09:55:13;1.80;99.90
13694;DHT22;6919;52.344;14.518;2024-01-15T09:57:44;1.80;99.90
13694;DHT22;6919;52.344;14.518;2024-01-15T10:00:14;1.80;99.90
13694;DHT22;6919;52.344;14.518;2024-01-15T10:02:45;1.80;99.90
13694;DHT22;6919;52.344;14.518;2024-01-15T10:05:15;1.80;99.90
13694;DHT22;6919;52.344;14.518;2024-01-15T10:07:46;1.80;99.90
13694;DHT22;6919;52.344;14.518;2024-01-15T10:10:17;1.80;99.90
13694;DHT22;6919;52.344;14.518;2024-01-15T10:12:45;1.80;99.90
13694;DHT22;6919;52.344;14.518;2024-01-15T10:15:13;1.80;99.90
13694;DHT22;6919;52.344;14.518;2024-01-15T10:17:42;1.70;99.90
13694;DHT22;6919;52.344;14.518;2024-01-15T10:20:11;1.60;99.90
13694;DHT22;6919;52.344;14.518;2024-01-15T10:22:42;1.60;99.90
13694;DHT22;6919;52.344;14.518;2024-01-15T10:25:13;1.70;99.90
13694;DHT22;6919;52.344;14.518;2024-01-15T10:27:43;1.80;99.90
13694;DHT22;6919;52.344;14.518;2024-01-15T10:30:12;1.70;99.90
13694;DHT22;6919;52.344;14.518;2024-01-15T10:32:57;1.70;99.90
13694;DHT22;6919;52.344;14.518;2024-01-15T10:35:29;1.60;99.90
13694;DHT22;6919;52.344;14.518;2024-01-15T10:38:00;1.60;99.90
13694;DHT22;6919;52.344;14.518;2024-01-15T10:40:29;1.50;99.90
13694;DHT22;6919;52.344;14.518;2024-01-15T10:42:57;1.50;99.90
13694;DHT22;6919;52.344;14.518;2024-01-15T10:45:26;1.50;99.90
13694;DHT22;6919;52.344;14.518;2024-01-15T10:47:55;1.50;99.90
13694;DHT22;6919;52.344;14.518;2024-01-15T10:50:26;1.60;99.90
13694;DHT22;6919;52.344;14.518;2024-01-15T10:52:55;1.60;99.90
13694;DHT22;6919;52.344;14.518;2024-01-15T10:55:25;1.60;99.90
13694;DHT22;6919;52.344;14.518;2024-01-15T10:57:55;1.80;99.90
13694;DHT22;6919;52.344;14.518;2024-01-15T11:00:24;1.80;99.90
13694;DHT22;6919;52.344;14.518;2024-01-15T11:02:55;1.80;99.90
13694;DHT22;6919;52.344;14.518;2024-01-15T11:05:24;1.90;99.90
13694;DHT22;6919;52.344;14.518;2024-01-15T11:07:55;2.00;99.90
13694;DHT22;6919;52.344;14.518;2024-01-15T11:10:41;2.00;99.90
13694;DHT22;6919;52.344;14.518;2024-01-15T11:13:19;2.10;99.90
13694;DHT22;6919;52.344;14.518;2024-01-15T11:15:58;2.10;99.90
13694;DHT22;6919;52.344;14.518;2024-01-15T11:18:29;2.00;99.90
13694;DHT22;6919;52.344;14.518;2024-01-15T11:21:19;2.10;99.90
13694;DHT22;6919;52.344;14.518;2024-01-15T11:23:55;2.20;99.90
13694;DHT22;6919;52.344;14.518;2024-01-15T11:26:34;2.20;99.90
13694;DHT22;6919;52.344;14.518;2024-01-15T11:29:05;2.40;99.90
13694;DHT22;6919;52.344;14.518;2024-01-15T11:31:56;2.30;99.90
13694;DHT22;6919;52.344;14.518;2024-01-15T11:34:57;2.20;99.90
13694;DHT22;6919;52.344;14.518;2024-01-15T11:37:56;2.40;99.90
13694;DHT22;6919;52.344;14.518;2024-01-15T11:40:37;2.40;99.90
13694;DHT22;6919;52.344;14.518;2024-01-15T11:43:10;2.40;99.90
13694;DHT22;6919;52.344;14.518;2024-01-15T11:45:40;2.40;99.90
13694;DHT22;6919;52.344;14.518;2024-01-15T11:48:11;2.30;99.90
13694;DHT22;6919;52.344;14.518;2024-01-15T11:50:45;2.40;99.90
13694;DHT22;6919;52.344;14.518;2024-01-15T11:53:20;2.40;99.90
13694;DHT22;6919;52.344;14.518;2024-01-15T11:55:58;2.40;99.90
13694;DHT22;6919;52.344;14.518;2024-01-15T11:58:28;2.30;99.90
13694;DHT22;6919;52.344;14.518;2024-01-15T12:00:57;2.30;99.90
13694;DHT22;6919;52.344;14.518;2024-01-15T12:03:26;2.30;99.90
13694;DHT22;6919;52.344;14.518;2024-01-15T12:05:55;2.50;99.90
13694;DHT22;6919;52.344;14.518;2024-01-15T12:08:25;2.50;99.90
13694;DHT22;6919;52.344;14.518;2024-01-15T12:10:54;2.60;99.90
13694;DHT22;6919;52.344;14.518;2024-01-15T12:13:24;2.70;99.90
13694;DHT22;6919;52.344;14.518;2024-01-15T12:15:54;2.80;99.90
13694;DHT22;6919;52.344;14.518;2024-01-15T12:18:22;2.80;99.90
13694;DHT22;6919;52.344;14.518;2024-01-15T12:20:54;2.80;99.90
13694;DHT22;6919;52.344;14.518;2024-01-15T12:23:24;2.80;99.90
13694;DHT22;6919;52.344;14.518;2024-01-15T12:25:54;2.70;99.90
13694;DHT22;6919;52.344;14.518;2024-01-15T12:28:22;2.70;99.90
13694;DHT22;6919;52.344;14.518;2024-01-15T12:30:52;2.60;99.90
13694;DHT22;6919;52.344;14.518;2024-01-15T12:33:20;2.60;99.90
13694;DHT22;6919;52.344;14.518;2024-01-15T12:35:52;2.60;99.90
13694;DHT22;6919;52.344;14.518;2024-01-15T12:38:21;2.50;99.90
13694;DHT22;6919;52.344;14.518;2024-01-15T12:40:49;2.50;99.90
13694;DHT22;6919;52.344;14.518;2024-01-15T12:43:17;2.40;99.90
13694;DHT22;6919;52.344;14.518;2024-01-15T12:45:46;2.30;99.90
13694;DHT22;6919;52.344;14.518;2024-01-15T12:48:16;2.30;99.90
13694;DHT22;6919;52.344;14.518;2024-01-15T12:50:45;2.10;99.90
13694;DHT22;6919;52.344;14.518;2024-01-15T12:53:14;2.00;99.90
13694;DHT22;6919;52.344;14.518;2024-01-15T12:55:44;2.00;99.90
13694;DHT22;6919;52.344;14.518;2024-01-15T12:58:12;1.90;99.90
13694;DHT22;6919;52.344;14.518;2024-01-15T13:00:42;2.10;99.90
13694;DHT22;6919;52.344;14.518;2024-01-15T13:03:10;1.60;99.90
13694;DHT22;6919;52.344;14.518;2024-01-15T13:05:41;1.60;99.90
13694;DHT22;6919;52.344;14.518;2024-01-15T13:08:09;1.50;99.90
13694;DHT22;6919;52.344;14.518;2024-01-15T13:10:37;1.50;99.90
13694;DHT22;6919;52.344;14.518;2024-01-15T13:13:06;1.50;99.90
13694;DHT22;6919;52.344;14.518;2024-01-15T13:15:35;1.50;99.90
13694;DHT22;6919;52.344;14.518;2024-01-15T13:18:04;1.50;99.90
13694;DHT22;6919;52.344;14.518;2024-01-15T13:20:33;1.50;99.90
13694;DHT22;6919;52.344;14.518;2024-01-15T13:23:03;1.50;99.90
13694;DHT22;6919;52.344;14.518;2024-01-15T13:25:32;1.70;99.90
13694;DHT22;6919;52.344;14.518;2024-01-15T13:28:03;1.70;99.90
13694;DHT22;6919;52.344;14.518;2024-01-15T13:30:32;1.70;99.90
13694;DHT22;6919;52.344;14.518;2024-01-15T13:33:01;1.80;99.90
13694;DHT22;6919;52.344;14.518;2024-01-15T13:35:32;1.80;99.90
13694;DHT22;6919;52.344;14.518;2024-01-15T13:38:01;1.80;99.90
13694;DHT22;6919;52.344;14.518;2024-01-15T13:40:34;1.80;99.90
13694;DHT22;6919;52.344;14.518;2024-01-15T13:43:04;1.80;99.90
13694;DHT22;6919;52.344;14.518;2024-01-15T13:45:35;1.90;99.90
13694;DHT22;6919;52.344;14.518;2024-01-15T13:48:05;1.80;99.90
13694;DHT22;6919;52.344;14.518;2024-01-15T13:50:37;1.90;99.90
13694;DHT22;6919;52.344;14.518;2024-01-15T13:53:08;1.90;99.90
13694;DHT22;6919;52.344;14.518;2024-01-15T13:55:37;1.80;99.90
13694;DHT22;6919;52.344;14.518;2024-01-15T13:58:05;1.80;99.90
13694;DHT22;6919;52.344;14.518;2024-01-15T14:00:33;1.70;99.90
13694;DHT22;6919;52.344;14.518;2024-01-15T14:03:02;1.70;99.90
13694;DHT22;6919;52.344;14.518;2024-01-15T14:05:31;1.80;99.90
13694;DHT22;6919;52.344;14.518;2024-01-15T14:08:00;1.80;99.90
13694;DHT22;6919;52.344;14.518;2024-01-15T14:10:29;1.70;99.90
13694;DHT22;6919;52.344;14.518;2024-01-15T14:12:58;1.80;99.90
13694;DHT22;6919;52.344;14.518;2024-01-15T14:15:27;1.70;99.90
13694;DHT22;6919;52.344;14.518;2024-01-15T14:17:55;1.80;99.90
13694;DHT22;6919;52.344;14.518;2024-01-15T14:20:25;1.80;99.90
13694;DHT22;6919;52.344;14.518;2024-01-15T14:22:54;1.80;99.90
13694;DHT22;6919;52.344;14.518;2024-01-15T14:25:23;1.90;99.90
13694;DHT22;6919;52.344;14.518;2024-01-15T14:27:53;1.90;99.90
13694;DHT22;6919;52.344;14.518;2024-01-15T14:30:21;1.90;99.90
13694;DHT22;6919;52.344;14.518;2024-01-15T14:32:50;1.90;99.90
13694;DHT22;6919;52.344;14.518;2024-01-15T14:35:19;1.80;99.90
13694;DHT22;6919;52.344;14.518;2024-01-15T14:37:47;1.90;99.90
13694;DHT22;6919;52.344;14.518;2024-01-15T14:40:16;1.90;99.90
13694;DHT22;6919;52.344;14.518;2024-01-15T14:42:45;1.80;99.90
13694;DHT22;6919;52.344;14.518;2024-01-15T14:45:14;1.90;99.90
13694;DHT22;6919;52.344;14.518;2024-01-15T14:47:43;1.90;99.90
13694;DHT22;6919;52.344;14.518;2024-01-15T14:50:12;2.00;99.90
13694;DHT22;6919;52.344;14.518;2024-01-15T14:52:40;2.00;99.90
13694;DHT22;6919;52.344;14.518;2024-01-15T14:55:11;2.00;99.90
13694;DHT22;6919;52.344;14.518;2024-01-15T14:57:40;1.90;99.90
13694;DHT22;6919;52.344;14.518;2024-01-15T15:00:09;2.00;99.90
13694;DHT22;6919;52.344;14.518;2024-01-15T15:02:41;1.90;99.90
13694;DHT22;6919;52.344;14.518;2024-01-15T15:05:10;2.00;99.90
13694;DHT22;6919;52.344;14.518;2024-01-15T15:07:40;1.80;99.90
13694;DHT22;6919;52.344;14.518;2024-01-15T15:10:09;1.80;99.90
13694;DHT22;6919;52.344;14.518;2024-01-15T15:12:39;1.80;99.90
13694;DHT22;6919;52.344;14.518;2024-01-15T15:15:08;1.70;99.90
13694;DHT22;6919;52.344;14.518;2024-01-15T15:17:44;1.70;99.90
13694;DHT22;6919;52.344;14.518;2024-01-15T15:20:12;1.80;99.90
13694;DHT22;6919;52.344;14.518;2024-01-15T15:22:41;1.70;99.90
13694;DHT22;6919;52.344;14.518;2024-01-15T15:25:10;1.70;99.90
13694;DHT22;6919;52.344;14.518;2024-01-15T15:27:39;1.70;99.90
13694;DHT22;6919;52.344;14.518;2024-01-15T15:30:08;1.70;99.90
13694;DHT22;6919;52.344;14.518;2024-01-15T15:32:37;1.70;99.90
13694;DHT22;6919;52.344;14.518;2024-01-15T15:35:07;1.60;99.90
13694;DHT22;6919;52.344;14.518;2024-01-15T15:37:36;1.70;99.90
13694;DHT22;6919;52.344;14.518;2024-01-15T15:40:06;1.70;99.90
13694;DHT22;6919;52.344;14.518;2024-01-15T15:42:36;1.60;99.90
13694;DHT22;6919;52.344;14.518;2024-01-15T15:45:05;1.60;99.90
13694;DHT22;6919;52.344;14.518;2024-01-15T15:47:34;1.60;99.90
13694;DHT22;6919;52.344;14.518;2024-01-15T15:50:02;1.70;99.90
13694;DHT22;6919;52.344;14.518;2024-01-15T15:52:33;1.70;99.90
13694;DHT22;6919;52.344;14.518;2024-01-15T15:55:01;1.70;99.90
13694;DHT22;6919;52.344;14.518;2024-01-15T15:57:30;1.70;99.90
13694;DHT22;6919;52.344;14.518;2024-01-15T15:59:58;1.70;99.90